This is the latest recevied weather packets stored in our database for station/object SP3PDK-1. If no packets are shown the sender has not sent any weather packets the latest 10 day(s).
| Time | Temp. | Humidity | Pressure | Rain* | Wind** | Luminosity | Snow |
|---|---|---|---|---|---|---|---|
| 1777969456 | 23.89° C | 47% | 1007.4 hPa | - | - | - | - |
| 1777968854 | 23.89° C | 48% | 1007.5 hPa | - | - | - | - |
| 1777968254 | 23.33° C | 49% | 1007.5 hPa | - | - | - | - |
| 1777967657 | 23.33° C | 51% | 1007.6 hPa | - | - | - | - |
| 1777967058 | 22.78° C | 52% | 1007.6 hPa | - | - | - | - |
| 1777966454 | 21.67° C | 58% | 1007.7 hPa | - | - | - | - |
| 1777965855 | 22.22° C | 57% | 1007.7 hPa | - | - | - | - |
| 1777965258 | 22.22° C | 60% | 1007.7 hPa | - | - | - | - |
| 1777964654 | 21.11° C | 61% | 1007.7 hPa | - | - | - | - |
| 1777964053 | 20.56° C | 66% | 1007.5 hPa | - | - | - | - |
| 1777963454 | 20.56° C | 67% | 1007.9 hPa | - | - | - | - |
| 1777962854 | 19.44° C | 72% | 1008 hPa | - | - | - | - |
| 1777962257 | 18.89° C | 74% | 1008.2 hPa | - | - | - | - |
| 1777961658 | 18.89° C | 76% | 1008.2 hPa | - | - | - | - |
| 1777961057 | 18.33° C | 77% | 1008.5 hPa | - | - | - | - |
| 1777960454 | 18.33° C | 76% | 1008.7 hPa | - | - | - | - |
| 1777959854 | 18.33° C | 78% | 1008.7 hPa | - | - | - | - |
| 1777959258 | 17.78° C | 80% | 1008.8 hPa | - | - | - | - |
| 1777958653 | 17.22° C | 85% | 1008.8 hPa | - | - | - | - |
| 1777958054 | 17.78° C | 83% | 1009.1 hPa | - | - | - | - |
| 1777957454 | 17.22° C | 85% | 1009 hPa | - | - | - | - |
| 1777956854 | 17.22° C | 84% | 1009.2 hPa | - | - | - | - |
| 1777956257 | 17.22° C | 81% | 1009.1 hPa | - | - | - | - |
| 1777955658 | 17.22° C | 83% | 1009.2 hPa | - | - | - | - |
| 1777955055 | 16.67° C | 83% | 1009 hPa | - | - | - | - |
* Rain since midnight (hover to see other rain measurements)
** Current wind speed in m/s (hover to see current wind gust speed)